sensor_id;sensor_type;location;lat;lon;timestamp;pressure;altitude;pressure_sealevel;temperature
60731;BMP280;46580;52.114;11.674;2023-05-29T01:56:19;100860.16;;;10.28
60731;BMP280;46580;52.114;11.674;2023-05-29T01:58:47;101475.44;;;13.87
60731;BMP280;46580;52.114;11.674;2023-05-29T02:01:17;101476.97;;;13.89
60731;BMP280;46580;52.114;11.674;2023-05-29T02:03:44;101480.72;;;13.96
60731;BMP280;46580;52.114;11.674;2023-05-29T02:06:10;101475.53;;;13.96
60731;BMP280;46580;52.114;11.674;2023-05-29T02:08:40;101481.88;;;14.03
60731;BMP280;46580;52.114;11.674;2023-05-29T02:11:06;101482.03;;;13.91
60731;BMP280;46580;52.114;11.674;2023-05-29T02:13:35;101490.38;;;13.83
60731;BMP280;46580;52.114;11.674;2023-05-29T02:16:00;101496.59;;;13.81
60731;BMP280;46580;52.114;11.674;2023-05-29T02:18:27;101497.63;;;13.78
60731;BMP280;46580;52.114;11.674;2023-05-29T02:20:53;101494.13;;;13.79
60731;BMP280;46580;52.114;11.674;2023-05-29T02:23:28;101504.69;;;13.76
60731;BMP280;46580;52.114;11.674;2023-05-29T02:25:53;101503.50;;;13.70
60731;BMP280;46580;52.114;11.674;2023-05-29T02:28:18;101504.22;;;13.61
60731;BMP280;46580;52.114;11.674;2023-05-29T02:30:47;101511.50;;;13.45
60731;BMP280;46580;52.114;11.674;2023-05-29T02:33:12;101516.19;;;13.62
60731;BMP280;46580;52.114;11.674;2023-05-29T02:35:38;101524.06;;;13.50
60731;BMP280;46580;52.114;11.674;2023-05-29T02:38:03;101523.69;;;13.33
60731;BMP280;46580;52.114;11.674;2023-05-29T02:40:29;101523.81;;;13.31
60731;BMP280;46580;52.114;11.674;2023-05-29T02:42:54;101526.41;;;13.42
60731;BMP280;46580;52.114;11.674;2023-05-29T02:45:20;101527.25;;;13.53
60731;BMP280;46580;52.114;11.674;2023-05-29T02:47:55;101536.78;;;13.53
60731;BMP280;46580;52.114;11.674;2023-05-29T02:50:22;101535.75;;;13.66
60731;BMP280;46580;52.114;11.674;2023-05-29T02:52:48;101539.97;;;13.67
60731;BMP280;46580;52.114;11.674;2023-05-29T02:55:14;101543.50;;;13.66
60731;BMP280;46580;52.114;11.674;2023-05-29T02:57:39;101540.66;;;13.69
60731;BMP280;46580;52.114;11.674;2023-05-29T03:00:06;101535.84;;;13.54
60731;BMP280;46580;52.114;11.674;2023-05-29T03:02:37;101539.34;;;13.42
60731;BMP280;46580;52.114;11.674;2023-05-29T03:05:03;101535.91;;;13.31
60731;BMP280;46580;52.114;11.674;2023-05-29T03:07:28;101535.44;;;13.37
60731;BMP280;46580;52.114;11.674;2023-05-29T03:09:56;101535.69;;;13.34
60731;BMP280;46580;52.114;11.674;2023-05-29T03:12:22;101540.66;;;13.47
60731;BMP280;46580;52.114;11.674;2023-05-29T03:14:48;101540.25;;;13.41
60731;BMP280;46580;52.114;11.674;2023-05-29T03:17:16;101542.19;;;13.16
60731;BMP280;46580;52.114;11.674;2023-05-29T03:19:42;101545.69;;;13.04
60731;BMP280;46580;52.114;11.674;2023-05-29T03:22:08;101551.59;;;13.06
60731;BMP280;46580;52.114;11.674;2023-05-29T03:24:33;101555.97;;;12.94
60731;BMP280;46580;52.114;11.674;2023-05-29T03:27:02;101552.00;;;13.01
60731;BMP280;46580;52.114;11.674;2023-05-29T03:29:30;101555.31;;;13.02
60731;BMP280;46580;52.114;11.674;2023-05-29T03:32:04;101551.91;;;13.02
60731;BMP280;46580;52.114;11.674;2023-05-29T03:34:30;101560.72;;;13.00
60731;BMP280;46580;52.114;11.674;2023-05-29T03:36:56;101552.00;;;13.01
60731;BMP280;46580;52.114;11.674;2023-05-29T03:39:25;101552.69;;;12.92
60731;BMP280;46580;52.114;11.674;2023-05-29T03:41:51;101555.28;;;12.92
60731;BMP280;46580;52.114;11.674;2023-05-29T03:44:16;101556.66;;;12.85
60731;BMP280;46580;52.114;11.674;2023-05-29T03:46:42;101557.13;;;12.90
60731;BMP280;46580;52.114;11.674;2023-05-29T03:49:16;101556.97;;;13.03
60731;BMP280;46580;52.114;11.674;2023-05-29T03:51:49;101557.78;;;13.04
60731;BMP280;46580;52.114;11.674;2023-05-29T03:54:15;101558.25;;;12.98
60731;BMP280;46580;52.114;11.674;2023-05-29T03:56:41;101563.81;;;13.15
60731;BMP280;46580;52.114;11.674;2023-05-29T03:59:11;101563.81;;;13.15
60731;BMP280;46580;52.114;11.674;2023-05-29T04:01:40;101563.53;;;13.07
60731;BMP280;46580;52.114;11.674;2023-05-29T04:04:08;101567.56;;;13.11
60731;BMP280;46580;52.114;11.674;2023-05-29T04:06:33;101556.50;;;13.09
60731;BMP280;46580;52.114;11.674;2023-05-29T04:09:10;101554.69;;;13.22
60731;BMP280;46580;52.114;11.674;2023-05-29T04:11:36;101570.63;;;13.39
60731;BMP280;46580;52.114;11.674;2023-05-29T04:14:04;101566.00;;;13.32
60731;BMP280;46580;52.114;11.674;2023-05-29T04:16:30;101567.66;;;13.43
60731;BMP280;46580;52.114;11.674;2023-05-29T04:18:55;101569.53;;;13.31
60731;BMP280;46580;52.114;11.674;2023-05-29T04:21:31;101575.63;;;13.30
60731;BMP280;46580;52.114;11.674;2023-05-29T04:23:58;101580.97;;;13.39
60731;BMP280;46580;52.114;11.674;2023-05-29T04:26:24;101583.66;;;13.38
60731;BMP280;46580;52.114;11.674;2023-05-29T04:28:53;101594.56;;;13.30
60731;BMP280;46580;52.114;11.674;2023-05-29T04:31:26;101594.66;;;13.29
60731;BMP280;46580;52.114;11.674;2023-05-29T04:33:52;101588.34;;;13.33
60731;BMP280;46580;52.114;11.674;2023-05-29T04:36:23;101589.53;;;13.39
60731;BMP280;46580;52.114;11.674;2023-05-29T04:38:58;101598.78;;;13.31
60731;BMP280;46580;52.114;11.674;2023-05-29T04:41:24;101593.25;;;13.25
60731;BMP280;46580;52.114;11.674;2023-05-29T04:44:10;101601.09;;;13.23
60731;BMP280;46580;52.114;11.674;2023-05-29T04:46:39;101605.28;;;13.37
60731;BMP280;46580;52.114;11.674;2023-05-29T04:49:10;101600.94;;;13.48
60731;BMP280;46580;52.114;11.674;2023-05-29T04:51:35;101608.34;;;13.41
60731;BMP280;46580;52.114;11.674;2023-05-29T04:54:04;101596.03;;;13.56
60731;BMP280;46580;52.114;11.674;2023-05-29T04:56:30;101600.38;;;13.44
60731;BMP280;46580;52.114;11.674;2023-05-29T04:58:56;101608.56;;;13.38
60731;BMP280;46580;52.114;11.674;2023-05-29T05:01:26;101609.06;;;13.43
60731;BMP280;46580;52.114;11.674;2023-05-29T05:03:54;101609.44;;;13.50
60731;BMP280;46580;52.114;11.674;2023-05-29T05:06:22;101605.63;;;13.32
60731;BMP280;46580;52.114;11.674;2023-05-29T05:08:47;101609.25;;;13.30
60731;BMP280;46580;52.114;11.674;2023-05-29T05:11:17;101615.66;;;13.47
60731;BMP280;46580;52.114;11.674;2023-05-29T05:13:45;101606.53;;;13.75
60731;BMP280;46580;52.114;11.674;2023-05-29T05:16:16;101609.63;;;13.80
60731;BMP280;46580;52.114;11.674;2023-05-29T05:18:43;101605.91;;;13.84
60731;BMP280;46580;52.114;11.674;2023-05-29T05:21:09;101611.84;;;13.74
60731;BMP280;46580;52.114;11.674;2023-05-29T05:23:36;101607.47;;;13.75
60731;BMP280;46580;52.114;11.674;2023-05-29T05:26:02;101611.22;;;13.94
60731;BMP280;46580;52.114;11.674;2023-05-29T05:28:28;101609.56;;;14.03
60731;BMP280;46580;52.114;11.674;2023-05-29T05:30:53;101612.47;;;13.88
60731;BMP280;46580;52.114;11.674;2023-05-29T05:33:28;101603.31;;;13.95
60731;BMP280;46580;52.114;11.674;2023-05-29T05:35:58;101606.28;;;14.23
60731;BMP280;46580;52.114;11.674;2023-05-29T05:38:24;101616.06;;;14.19
60731;BMP280;46580;52.114;11.674;2023-05-29T05:40:49;101609.44;;;14.15
60731;BMP280;46580;52.114;11.674;2023-05-29T05:43:18;101607.81;;;14.25
60731;BMP280;46580;52.114;11.674;2023-05-29T05:45:44;101597.22;;;14.28
60731;BMP280;46580;52.114;11.674;2023-05-29T05:48:12;101598.50;;;14.33
60731;BMP280;46580;52.114;11.674;2023-05-29T05:50:37;101605.66;;;14.51
60731;BMP280;46580;52.114;11.674;2023-05-29T05:53:08;101594.09;;;14.55
60731;BMP280;46580;52.114;11.674;2023-05-29T05:55:34;101602.97;;;14.53
60731;BMP280;46580;52.114;11.674;2023-05-29T05:57:59;101607.22;;;14.54
60731;BMP280;46580;52.114;11.674;2023-05-29T06:00:25;101610.28;;;14.89
60731;BMP280;46580;52.114;11.674;2023-05-29T06:02:51;101612.09;;;14.89
60731;BMP280;46580;52.114;11.674;2023-05-29T06:05:16;101618.69;;;14.93
60731;BMP280;46580;52.114;11.674;2023-05-29T06:07:42;101624.66;;;15.04
60731;BMP280;46580;52.114;11.674;2023-05-29T06:10:07;101614.53;;;15.32
60731;BMP280;46580;52.114;11.674;2023-05-29T06:12:33;101620.56;;;15.32
60731;BMP280;46580;52.114;11.674;2023-05-29T06:14:59;101617.22;;;15.41
60731;BMP280;46580;52.114;11.674;2023-05-29T06:17:24;101612.03;;;15.61
60731;BMP280;46580;52.114;11.674;2023-05-29T06:19:50;101616.97;;;15.44
60731;BMP280;46580;52.114;11.674;2023-05-29T06:22:15;101621.91;;;15.16
60731;BMP280;46580;52.114;11.674;2023-05-29T06:24:41;101621.50;;;15.31
60731;BMP280;46580;52.114;11.674;2023-05-29T06:27:06;101621.06;;;15.26
60731;BMP280;46580;52.114;11.674;2023-05-29T06:29:32;101622.53;;;15.40
60731;BMP280;46580;52.114;11.674;2023-05-29T06:31:58;101622.09;;;15.35
60731;BMP280;46580;52.114;11.674;2023-05-29T06:34:23;101621.34;;;15.63
60731;BMP280;46580;52.114;11.674;2023-05-29T06:36:49;101631.16;;;15.80
60731;BMP280;46580;52.114;11.674;2023-05-29T06:39:14;101630.13;;;15.92
60731;BMP280;46580;52.114;11.674;2023-05-29T06:41:40;101631.41;;;16.17
60731;BMP280;46580;52.114;11.674;2023-05-29T06:44:05;101635.50;;;16.10
60731;BMP280;46580;52.114;11.674;2023-05-29T06:46:31;101641.91;;;16.36
60731;BMP280;46580;52.114;11.674;2023-05-29T06:48:56;101644.78;;;16.42
60731;BMP280;46580;52.114;11.674;2023-05-29T06:51:22;101639.53;;;16.33
60731;BMP280;46580;52.114;11.674;2023-05-29T06:53:47;101641.25;;;16.52
60731;BMP280;46580;52.114;11.674;2023-05-29T06:56:12;101648.94;;;16.54
60731;BMP280;46580;52.114;11.674;2023-05-29T06:58:38;101645.38;;;16.93
60731;BMP280;46580;52.114;11.674;2023-05-29T07:01:04;101639.94;;;16.96
60731;BMP280;46580;52.114;11.674;2023-05-29T07:03:30;101642.41;;;17.07
60731;BMP280;46580;52.114;11.674;2023-05-29T07:05:55;101646.50;;;17.00
60731;BMP280;46580;52.114;11.674;2023-05-29T07:08:21;101648.72;;;17.23
60731;BMP280;46580;52.114;11.674;2023-05-29T07:25:21;101645.97;;;17.98
60731;BMP280;46580;52.114;11.674;2023-05-29T07:27:46;101643.56;;;18.14
60731;BMP280;46580;52.114;11.674;2023-05-29T07:30:12;101644.28;;;18.06
60731;BMP280;46580;52.114;11.674;2023-05-29T07:32:37;101637.06;;;18.36
60731;BMP280;46580;52.114;11.674;2023-05-29T07:35:03;101637.34;;;18.33
60731;BMP280;46580;52.114;11.674;2023-05-29T07:37:29;101644.00;;;18.19
60731;BMP280;46580;52.114;11.674;2023-05-29T07:39:55;101643.44;;;18.24
60731;BMP280;46580;52.114;11.674;2023-05-29T07:42:20;101637.38;;;18.24
60731;BMP280;46580;52.114;11.674;2023-05-29T07:44:46;101650.59;;;18.49
60731;BMP280;46580;52.114;11.674;2023-05-29T07:47:13;101649.50;;;18.51
60731;BMP280;46580;52.114;11.674;2023-05-29T07:49:38;101650.31;;;18.52
60731;BMP280;46580;52.114;11.674;2023-05-29T07:52:04;101649.75;;;18.84
60731;BMP280;46580;52.114;11.674;2023-05-29T07:54:31;101654.03;;;18.85
60731;BMP280;46580;52.114;11.674;2023-05-29T07:56:58;101648.91;;;18.93
60731;BMP280;46580;52.114;11.674;2023-05-29T07:59:25;101659.03;;;18.96
60731;BMP280;46580;52.114;11.674;2023-05-29T08:01:50;101667.94;;;19.19
60731;BMP280;46580;52.114;11.674;2023-05-29T08:04:15;101665.56;;;19.26
60731;BMP280;46580;52.114;11.674;2023-05-29T08:06:41;101662.34;;;19.32
60731;BMP280;46580;52.114;11.674;2023-05-29T08:09:10;101674.00;;;19.20
60731;BMP280;46580;52.114;11.674;2023-05-29T08:11:36;101669.56;;;19.03
60731;BMP280;46580;52.114;11.674;2023-05-29T08:14:03;101671.22;;;18.78
60731;BMP280;46580;52.114;11.674;2023-05-29T08:16:31;101669.94;;;19.08
60731;BMP280;46580;52.114;11.674;2023-05-29T08:18:57;101673.03;;;19.38
60731;BMP280;46580;52.114;11.674;2023-05-29T08:21:23;101678.25;;;19.55
60731;BMP280;46580;52.114;11.674;2023-05-29T08:23:49;101678.19;;;19.47
60731;BMP280;46580;52.114;11.674;2023-05-29T08:26:14;101675.72;;;19.46
60731;BMP280;46580;52.114;11.674;2023-05-29T08:28:40;101669.06;;;19.68
60731;BMP280;46580;52.114;11.674;2023-05-29T08:31:05;101669.19;;;20.01
60731;BMP280;46580;52.114;11.674;2023-05-29T08:33:31;101661.38;;;20.09
60731;BMP280;46580;52.114;11.674;2023-05-29T08:36:00;101663.03;;;20.10
60731;BMP280;46580;52.114;11.674;2023-05-29T08:38:26;101660.63;;;19.91
60731;BMP280;46580;52.114;11.674;2023-05-29T08:40:56;101666.31;;;20.11
60731;BMP280;46580;52.114;11.674;2023-05-29T08:43:23;101660.06;;;20.05
60731;BMP280;46580;52.114;11.674;2023-05-29T08:45:54;101663.03;;;20.10
60731;BMP280;46580;52.114;11.674;2023-05-29T08:48:23;101661.69;;;19.81
60731;BMP280;46580;52.114;11.674;2023-05-29T08:50:53;101661.31;;;19.76
60731;BMP280;46580;52.114;11.674;2023-05-29T08:53:19;101655.25;;;19.75
60731;BMP280;46580;52.114;11.674;2023-05-29T08:55:45;101662.81;;;20.03
60731;BMP280;46580;52.114;11.674;2023-05-29T08:58:13;101669.41;;;20.07
60731;BMP280;46580;52.114;11.674;2023-05-29T09:00:39;101668.94;;;19.70
60731;BMP280;46580;52.114;11.674;2023-05-29T09:03:06;101669.47;;;19.73
60731;BMP280;46580;52.114;11.674;2023-05-29T09:05:32;101664.03;;;19.67
60731;BMP280;46580;52.114;11.674;2023-05-29T09:07:58;101668.94;;;19.87
60731;BMP280;46580;52.114;11.674;2023-05-29T09:10:24;101672.16;;;20.06
60731;BMP280;46580;52.114;11.674;2023-05-29T09:12:50;101673.88;;;20.14
60731;BMP280;46580;52.114;11.674;2023-05-29T09:15:20;101664.06;;;19.92
60731;BMP280;46580;52.114;11.674;2023-05-29T09:17:56;101655.25;;;20.17
60731;BMP280;46580;52.114;11.674;2023-05-29T09:20:25;101664.00;;;20.33
60731;BMP280;46580;52.114;11.674;2023-05-29T09:23:04;101655.84;;;20.69
60731;BMP280;46580;52.114;11.674;2023-05-29T09:25:31;101664.28;;;20.48
60731;BMP280;46580;52.114;11.674;2023-05-29T09:28:05;101671.13;;;20.48
60731;BMP280;46580;52.114;11.674;2023-05-29T09:30:41;101665.78;;;20.58
60731;BMP280;46580;52.114;11.674;2023-05-29T09:33:13;101676.38;;;20.48
60731;BMP280;46580;52.114;11.674;2023-05-29T09:35:44;101672.56;;;20.68
60731;BMP280;46580;52.114;11.674;2023-05-29T09:38:12;101665.47;;;20.93
60731;BMP280;46580;52.114;11.674;2023-05-29T09:40:39;101664.44;;;20.86
60731;BMP280;46580;52.114;11.674;2023-05-29T09:43:16;101663.19;;;21.06
60731;BMP280;46580;52.114;11.674;2023-05-29T09:45:48;101669.34;;;21.22
60731;BMP280;46580;52.114;11.674;2023-05-29T09:48:22;101659.38;;;21.41
60731;BMP280;46580;52.114;11.674;2023-05-29T09:50:48;101666.59;;;21.55
60731;BMP280;46580;52.114;11.674;2023-05-29T09:53:18;101661.63;;;21.36
60731;BMP280;46580;52.114;11.674;2023-05-29T09:55:45;101657.56;;;21.34
60731;BMP280;46580;52.114;11.674;2023-05-29T09:58:14;101654.13;;;21.41
60731;BMP280;46580;52.114;11.674;2023-05-29T10:00:41;101654.78;;;21.43
60731;BMP280;46580;52.114;11.674;2023-05-29T10:03:06;101654.47;;;21.46
60731;BMP280;46580;52.114;11.674;2023-05-29T10:05:32;101663.81;;;21.56
60731;BMP280;46580;52.114;11.674;2023-05-29T22:33:03;101715.19;;;14.86
60731;BMP280;46580;52.114;11.674;2023-05-29T22:35:28;101715.88;;;14.77
60731;BMP280;46580;52.114;11.674;2023-05-29T22:37:54;101719.41;;;14.76
60731;BMP280;46580;52.114;11.674;2023-05-29T22:40:19;101714.00;;;14.79
60731;BMP280;46580;52.114;11.674;2023-05-29T22:42:45;101716.59;;;14.79
60731;BMP280;46580;52.114;11.674;2023-05-29T22:45:10;101713.28;;;14.77
60731;BMP280;46580;52.114;11.674;2023-05-29T22:47:38;101709.53;;;14.70
60731;BMP280;46580;52.114;11.674;2023-05-29T22:50:04;101707.53;;;14.63
60731;BMP280;46580;52.114;11.674;2023-05-29T22:52:29;101706.22;;;14.57
60731;BMP280;46580;52.114;11.674;2023-05-29T22:54:55;101709.31;;;14.51
60731;BMP280;46580;52.114;11.674;2023-05-29T22:57:21;101709.41;;;14.50
60731;BMP280;46580;52.114;11.674;2023-05-29T22:59:46;101710.72;;;14.45
60731;BMP280;46580;52.114;11.674;2023-05-29T23:02:11;101708.59;;;14.39
60731;BMP280;46580;52.114;11.674;2023-05-29T23:04:38;101704.34;;;14.38
60731;BMP280;46580;52.114;11.674;2023-05-29T23:07:03;101707.28;;;14.33
60731;BMP280;46580;52.114;11.674;2023-05-29T23:09:29;101705.66;;;14.32
60731;BMP280;46580;52.114;11.674;2023-05-29T23:11:55;101713.78;;;14.28
60731;BMP280;46580;52.114;11.674;2023-05-29T23:14:20;101711.28;;;14.27
60731;BMP280;46580;52.114;11.674;2023-05-29T23:16:47;101708.34;;;14.20
60731;BMP280;46580;52.114;11.674;2023-05-29T23:19:13;101711.41;;;14.25
60731;BMP280;46580;52.114;11.674;2023-05-29T23:21:39;101708.81;;;14.25
60731;BMP280;46580;52.114;11.674;2023-05-29T23:24:05;101713.38;;;14.22
60731;BMP280;46580;52.114;11.674;2023-05-29T23:26:30;101723.88;;;14.20
60731;BMP280;46580;52.114;11.674;2023-05-29T23:28:55;101725.28;;;14.13
60731;BMP280;46580;52.114;11.674;2023-05-29T23:31:21;101716.88;;;13.99
60731;BMP280;46580;52.114;11.674;2023-05-29T23:33:46;101710.16;;;13.97
60731;BMP280;46580;52.114;11.674;2023-05-29T23:36:12;101719.22;;;14.02
60731;BMP280;46580;52.114;11.674;2023-05-29T23:38:37;101720.06;;;14.03
60731;BMP280;46580;52.114;11.674;2023-05-29T23:41:02;101719.84;;;14.06
60731;BMP280;46580;52.114;11.674;2023-05-29T23:43:28;101720.78;;;14.05
60731;BMP280;46580;52.114;11.674;2023-05-29T23:45:53;101720.28;;;14.00
60731;BMP280;46580;52.114;11.674;2023-05-29T23:48:19;101726.97;;;13.92
60731;BMP280;46580;52.114;11.674;2023-05-29T23:50:45;101728.00;;;13.89
60731;BMP280;46580;52.114;11.674;2023-05-29T23:53:10;101733.44;;;13.86
60731;BMP280;46580;52.114;11.674;2023-05-29T23:55:35;101725.09;;;13.94
60731;BMP280;46580;52.114;11.674;2023-05-29T23:58:01;101738.50;;;13.88
